createdAt,value
2022-08-17T00:00:55.273Z,3.67
2022-08-17T00:03:22.447Z,4.03
2022-08-17T00:05:47.867Z,3.75
2022-08-17T00:08:11.079Z,4.15
2022-08-17T00:10:33.909Z,3.40
2022-08-17T00:12:56.527Z,3.88
2022-08-17T00:15:21.145Z,3.65
2022-08-17T00:17:43.774Z,3.53
2022-08-17T00:20:06.561Z,4.10
2022-08-17T00:22:28.862Z,3.83
2022-08-17T00:24:55.645Z,4.10
2022-08-17T00:27:18.260Z,3.65
2022-08-17T00:29:40.577Z,3.47
2022-08-17T00:33:15.073Z,3.40
2022-08-17T00:34:45.789Z,3.65
2022-08-17T00:37:08.066Z,3.70
2022-08-17T00:39:30.422Z,3.92
2022-08-17T00:41:52.732Z,3.72
2022-08-17T00:44:16.017Z,3.90
2022-08-17T00:46:40.388Z,3.53
2022-08-17T00:49:02.717Z,3.65
2022-08-17T00:51:46.697Z,3.78
2022-08-17T00:54:13.653Z,5.07
2022-08-17T00:56:45.099Z,4.93
2022-08-17T00:59:09.791Z,4.60
2022-08-17T01:01:32.819Z,5.22
2022-08-17T01:03:58.032Z,4.90
2022-08-17T01:06:23.364Z,5.03
2022-08-17T01:08:45.804Z,4.65
2022-08-17T01:11:08.918Z,4.50
2022-08-17T01:13:38.202Z,4.43
2022-08-17T01:16:05.561Z,4.50
2022-08-17T01:18:28.149Z,4.60
2022-08-17T01:20:51.905Z,4.75
2022-08-17T01:23:20.907Z,4.30
2022-08-17T01:25:43.572Z,4.82
2022-08-17T01:28:11.111Z,4.53
2022-08-17T01:30:58.619Z,4.63
2022-08-17T01:33:21.634Z,4.63
2022-08-17T01:35:43.888Z,5.43
2022-08-17T01:38:06.579Z,5.15
2022-08-17T01:40:39.802Z,5.05
2022-08-17T01:43:12.658Z,4.57
2022-08-17T01:45:38.603Z,4.82
2022-08-17T01:48:01.253Z,4.93
2022-08-17T01:50:25.890Z,4.90
2022-08-17T01:52:52.245Z,4.40
2022-08-17T01:55:16.413Z,4.40
2022-08-17T01:57:38.765Z,4.72
2022-08-17T02:00:01.047Z,4.70
2022-08-17T02:02:30.270Z,4.00
2022-08-17T02:04:53.369Z,4.50
2022-08-17T02:07:17.142Z,4.70
2022-08-17T02:09:42.122Z,5.10
2022-08-17T02:12:38.300Z,4.22
2022-08-17T02:14:46.829Z,4.45
2022-08-17T02:17:09.073Z,5.43
2022-08-17T02:19:32.092Z,4.20
2022-08-17T02:21:55.224Z,5.20
2022-08-17T02:24:58.655Z,4.65
2022-08-17T02:27:05.858Z,4.88
2022-08-17T02:29:28.197Z,5.47
2022-08-17T02:31:50.649Z,5.57
2022-08-17T02:34:13.584Z,5.68
2022-08-17T02:36:36.684Z,4.65
2022-08-17T02:38:58.959Z,4.25
2022-08-17T02:41:21.213Z,4.35
2022-08-17T02:43:43.527Z,3.58
2022-08-17T02:46:05.918Z,3.90
2022-08-17T02:48:31.455Z,3.67
2022-08-17T02:50:54.164Z,3.80
2022-08-17T02:53:16.640Z,3.83
2022-08-17T02:55:40.651Z,3.97
2022-08-17T02:58:03.844Z,3.72
2022-08-17T03:00:30.734Z,4.28
2022-08-17T03:02:53.100Z,3.97
2022-08-17T03:05:18.004Z,3.75
2022-08-17T03:07:40.269Z,4.43
2022-08-17T03:10:02.572Z,4.50
2022-08-17T03:12:24.853Z,4.10
2022-08-17T03:14:47.079Z,4.78
2022-08-17T03:17:10.701Z,4.47
2022-08-17T03:19:33.510Z,4.32
2022-08-17T03:21:55.777Z,4.38
2022-08-17T03:24:18.047Z,4.93
2022-08-17T03:26:43.797Z,4.72
2022-08-17T03:29:06.150Z,4.30
2022-08-17T03:31:28.406Z,4.80
2022-08-17T03:33:50.654Z,4.32
2022-08-17T03:36:12.953Z,4.35
2022-08-17T03:38:39.430Z,4.13
2022-08-17T03:41:01.836Z,4.30
2022-08-17T03:43:24.165Z,3.85
2022-08-17T03:46:05.193Z,4.00
2022-08-17T03:48:46.780Z,4.40
2022-08-17T03:51:29.557Z,4.38
2022-08-17T03:54:17.125Z,4.55
2022-08-17T03:56:42.346Z,4.82
2022-08-17T03:59:05.345Z,4.97
2022-08-17T04:01:27.652Z,5.13
2022-08-17T04:03:49.933Z,5.53
2022-08-17T04:06:12.200Z,5.65
2022-08-17T04:08:34.506Z,4.45
2022-08-17T04:10:57.253Z,4.93
2022-08-17T04:13:25.006Z,4.43
2022-08-17T04:15:49.150Z,4.60
2022-08-17T04:18:11.385Z,4.53
2022-08-17T04:20:34.009Z,4.80
2022-08-17T04:23:04.840Z,4.50
2022-08-17T04:25:27.383Z,3.88
2022-08-17T04:27:49.618Z,5.45
2022-08-17T04:30:12.217Z,4.80
2022-08-17T04:33:04.698Z,5.05
2022-08-17T04:35:35.650Z,5.10
2022-08-17T04:37:57.973Z,4.80
2022-08-17T04:40:39.472Z,5.13
2022-08-17T04:43:02.735Z,4.57
2022-08-17T04:45:24.957Z,4.95
2022-08-17T04:47:54.415Z,4.88
2022-08-17T04:50:16.714Z,5.00
2022-08-17T04:52:46.085Z,5.30
2022-08-17T04:55:08.677Z,5.40
2022-08-17T04:57:31.236Z,4.90
2022-08-17T05:00:01.814Z,5.00
2022-08-17T05:02:25.489Z,4.65
2022-08-17T05:04:47.709Z,5.35
2022-08-17T05:07:10.528Z,5.00
2022-08-17T05:09:32.834Z,5.40
2022-08-17T05:11:56.138Z,5.30
2022-08-17T05:14:32.360Z,5.18
2022-08-17T05:16:56.163Z,4.75
2022-08-17T05:19:18.373Z,4.63
2022-08-17T05:21:40.666Z,4.60
2022-08-17T05:24:07.127Z,4.72
2022-08-17T05:26:46.132Z,4.70
2022-08-17T05:29:08.390Z,4.88
2022-08-17T05:31:31.351Z,5.15
2022-08-17T05:33:53.685Z,4.43
2022-08-17T05:36:41.785Z,4.93
2022-08-17T05:38:58.691Z,5.47
2022-08-17T05:41:21.041Z,5.07
2022-08-17T05:43:43.759Z,4.70
2022-08-17T05:46:14.079Z,5.03
2022-08-17T05:48:39.746Z,5.05
2022-08-17T05:51:08.889Z,5.15
2022-08-17T05:53:37.461Z,5.43
2022-08-17T05:56:29.341Z,5.75
2022-08-17T05:59:01.893Z,4.60
2022-08-17T06:01:27.235Z,4.95
2022-08-17T06:03:58.361Z,4.97
2022-08-17T06:06:39.855Z,5.13
2022-08-17T06:09:22.855Z,5.63
2022-08-17T06:11:54.087Z,5.05
2022-08-17T06:14:26.958Z,5.78
2022-08-17T06:16:52.167Z,5.70
2022-08-17T06:19:17.703Z,6.22
2022-08-17T06:21:42.045Z,5.68
2022-08-17T06:24:26.257Z,5.35
2022-08-17T06:26:48.704Z,5.45
2022-08-17T06:29:29.837Z,5.55
2022-08-17T06:31:52.195Z,5.90
2022-08-17T06:34:14.989Z,5.47
2022-08-17T06:36:37.202Z,5.05
2022-08-17T06:39:18.100Z,5.50
2022-08-17T06:41:41.755Z,5.43
2022-08-17T06:44:10.668Z,5.47
2022-08-17T06:46:48.470Z,5.75
2022-08-17T06:49:21.830Z,5.82
2022-08-17T06:51:46.989Z,5.75
2022-08-17T06:54:32.884Z,5.53
2022-08-17T06:57:02.244Z,5.45
2022-08-17T06:59:47.173Z,5.72
2022-08-17T07:02:19.930Z,6.10
2022-08-17T07:04:52.512Z,5.80
2022-08-17T07:07:33.641Z,6.55
2022-08-17T07:09:57.561Z,6.00
2022-08-17T07:12:22.252Z,6.82
2022-08-17T07:14:51.456Z,6.25
2022-08-17T07:17:18.353Z,6.63
2022-08-17T07:19:42.314Z,4.93
2022-08-17T07:22:10.986Z,5.50
2022-08-17T07:24:43.197Z,6.10
2022-08-17T07:27:14.185Z,6.35
2022-08-17T07:29:41.514Z,6.35
2022-08-17T07:32:03.829Z,5.32
2022-08-17T07:34:27.216Z,6.10
2022-08-17T07:37:05.119Z,6.95
2022-08-17T07:39:28.121Z,7.05
2022-08-17T07:41:53.037Z,6.88
2022-08-17T07:44:19.972Z,6.28
2022-08-17T07:47:09.052Z,6.85
2022-08-17T07:49:31.738Z,6.90
2022-08-17T07:51:54.070Z,6.80
2022-08-17T07:54:16.553Z,7.35
2022-08-17T07:56:41.112Z,6.90
2022-08-17T07:59:12.174Z,8.68
2022-08-17T08:01:39.578Z,7.35
2022-08-17T08:07:21.588Z,9.35
2022-08-17T08:09:45.882Z,9.27
2022-08-17T08:12:33.502Z,9.80
2022-08-17T08:14:59.097Z,10.68
2022-08-17T08:17:24.066Z,11.18
2022-08-17T08:19:46.315Z,9.55
2022-08-17T08:22:11.228Z,10.18
2022-08-17T08:24:36.674Z,10.20
2022-08-17T08:27:15.903Z,9.35
2022-08-17T08:29:50.568Z,7.63
2022-08-17T08:32:20.091Z,8.30
2022-08-17T08:35:03.008Z,7.65
2022-08-17T08:37:47.253Z,7.25
2022-08-17T08:40:27.937Z,7.00
2022-08-17T08:43:17.253Z,6.68
2022-08-17T08:46:07.497Z,6.78
2022-08-17T08:48:53.238Z,5.88
2022-08-17T08:51:28.765Z,5.30
2022-08-17T08:54:04.777Z,5.75
2022-08-17T08:56:27.088Z,5.65
2022-08-17T08:58:55.286Z,6.00
2022-08-17T09:01:23.875Z,5.80
2022-08-17T09:04:24.280Z,5.55
2022-08-17T09:06:58.012Z,6.43
2022-08-17T09:09:26.332Z,6.70
2022-08-17T09:12:03.825Z,6.80
2022-08-17T09:14:45.059Z,7.35
2022-08-17T09:17:15.135Z,6.93
2022-08-17T09:19:38.808Z,6.90
2022-08-17T09:22:02.964Z,7.03
2022-08-17T09:24:34.316Z,6.85
2022-08-17T09:27:14.681Z,6.72
2022-08-17T09:29:39.657Z,6.05
2022-08-17T09:32:04.676Z,6.25
2022-08-17T09:34:34.818Z,6.75
2022-08-17T09:37:03.434Z,6.80
2022-08-17T09:39:33.903Z,5.68
2022-08-17T09:42:02.272Z,5.20
2022-08-17T09:44:32.077Z,5.47
2022-08-17T09:46:57.636Z,5.28
2022-08-17T09:49:32.299Z,4.93
2022-08-17T09:52:01.282Z,4.35
2022-08-17T09:54:39.603Z,4.78
2022-08-17T09:57:28.748Z,4.18
2022-08-17T10:00:16.611Z,4.93
2022-08-17T10:02:54.556Z,4.40
2022-08-17T10:05:37.814Z,4.32
2022-08-17T10:08:00.097Z,4.30
2022-08-17T10:10:29.684Z,4.45
2022-08-17T10:12:59.713Z,4.85
2022-08-17T10:15:37.198Z,4.70
2022-08-17T10:18:07.658Z,4.13
2022-08-17T10:20:38.248Z,5.05
2022-08-17T10:23:22.125Z,4.72
2022-08-17T10:26:05.718Z,4.95
2022-08-17T10:28:30.940Z,5.03
2022-08-17T10:31:16.569Z,4.55
2022-08-17T10:33:50.963Z,5.60
2022-08-17T10:36:19.362Z,6.07
2022-08-17T10:38:45.956Z,4.50
2022-08-17T10:41:24.427Z,4.82
2022-08-17T10:44:36.679Z,4.55
2022-08-17T10:46:41.476Z,4.18
2022-08-17T10:49:19.111Z,3.47
2022-08-17T10:51:42.216Z,3.33
2022-08-17T10:54:06.105Z,2.92
2022-08-17T10:56:40.417Z,3.65
2022-08-17T10:59:02.656Z,3.42
2022-08-17T11:01:34.112Z,3.35
2022-08-17T11:03:57.617Z,4.25
2022-08-17T11:06:34.065Z,3.30
2022-08-17T11:09:07.850Z,3.47
2022-08-17T11:11:35.819Z,3.60
2022-08-17T11:14:11.356Z,3.83
2022-08-17T11:16:48.086Z,3.97
2022-08-17T11:19:13.513Z,3.90
2022-08-17T11:21:58.847Z,3.83
2022-08-17T11:24:38.763Z,4.18
2022-08-17T11:27:22.015Z,3.80
2022-08-17T11:29:53.075Z,3.70
2022-08-17T11:32:37.513Z,3.63
2022-08-17T11:35:12.441Z,3.10
2022-08-17T11:37:34.945Z,3.90
2022-08-17T11:40:01.001Z,3.90
2022-08-17T11:42:42.509Z,3.63
2022-08-17T11:45:07.516Z,4.05
2022-08-17T11:48:16.124Z,3.08
2022-08-17T11:51:05.173Z,3.15
2022-08-17T11:53:39.692Z,3.35
2022-08-17T11:56:04.052Z,3.22
2022-08-17T11:58:37.331Z,3.05
2022-08-17T12:01:00.803Z,3.03
2022-08-17T12:03:26.561Z,2.97
2022-08-17T12:05:49.909Z,3.00
2022-08-17T12:08:19.731Z,2.63
2022-08-17T12:11:02.361Z,2.70
2022-08-17T12:13:27.360Z,3.45
2022-08-17T12:15:57.701Z,3.00
2022-08-17T12:18:42.065Z,3.42
2022-08-17T12:21:18.275Z,3.83
2022-08-17T12:23:44.306Z,3.30
2022-08-17T12:26:19.778Z,2.70
2022-08-17T12:28:45.585Z,3.05
2022-08-17T12:31:12.565Z,2.65
2022-08-17T12:33:36.757Z,3.10
2022-08-17T12:36:02.766Z,2.58
2022-08-17T12:38:32.585Z,2.88
2022-08-17T12:40:57.849Z,2.67
2022-08-17T12:43:21.349Z,2.60
2022-08-17T12:45:44.153Z,2.80
2022-08-17T12:48:11.020Z,2.78
2022-08-17T12:50:33.402Z,2.97
2022-08-17T12:52:59.888Z,3.00
2022-08-17T12:55:25.569Z,3.30
2022-08-17T12:57:59.677Z,3.03
2022-08-17T13:00:31.125Z,2.90
2022-08-17T13:02:53.359Z,2.85
2022-08-17T13:05:17.887Z,2.92
2022-08-17T13:07:43.471Z,2.67
2022-08-17T13:10:06.033Z,3.08
2022-08-17T13:12:30.244Z,2.80
2022-08-17T13:14:52.530Z,2.83
2022-08-17T13:17:34.872Z,3.28
2022-08-17T13:19:57.451Z,3.10
2022-08-17T13:22:22.901Z,3.15
2022-08-17T13:24:59.014Z,3.55
2022-08-17T13:27:22.417Z,3.50
2022-08-17T13:29:51.453Z,3.20
2022-08-17T13:32:15.765Z,2.97
2022-08-17T13:35:13.082Z,3.20
2022-08-17T13:37:25.889Z,2.67
2022-08-17T13:39:49.338Z,2.90
2022-08-17T13:42:33.575Z,3.70
2022-08-17T13:45:35.533Z,3.70
2022-08-17T13:48:14.121Z,2.95
2022-08-17T13:50:37.741Z,2.97
2022-08-17T13:53:00.322Z,3.10
2022-08-17T13:55:23.448Z,3.63
2022-08-17T13:58:03.906Z,2.78
2022-08-17T14:00:31.779Z,2.90
2022-08-17T14:02:56.996Z,3.15
2022-08-17T14:05:19.321Z,3.00
2022-08-17T14:07:41.677Z,3.53
2022-08-17T14:10:12.710Z,3.50
2022-08-17T14:12:35.774Z,3.75
2022-08-17T14:14:58.842Z,3.33
2022-08-17T14:17:22.740Z,3.33
2022-08-17T14:19:44.979Z,2.85
2022-08-17T14:22:11.164Z,3.65
2022-08-17T14:24:35.164Z,3.35
2022-08-17T14:26:58.905Z,3.03
2022-08-17T14:29:22.284Z,3.03
2022-08-17T14:31:46.047Z,3.45
2022-08-17T14:34:15.738Z,3.05
2022-08-17T14:36:38.613Z,2.38
2022-08-17T14:39:11.308Z,2.70
2022-08-17T14:41:37.517Z,3.08
2022-08-17T14:44:02.688Z,3.45
2022-08-17T14:46:26.354Z,3.15
2022-08-17T14:48:57.110Z,3.20
2022-08-17T14:51:20.816Z,3.70
2022-08-17T14:53:43.160Z,3.20
2022-08-17T14:56:08.207Z,3.53
2022-08-17T14:58:30.709Z,3.67
2022-08-17T15:01:00.962Z,3.50
2022-08-17T15:03:23.674Z,3.63
2022-08-17T15:05:47.681Z,3.00
2022-08-17T15:08:10.012Z,3.30
2022-08-17T15:10:32.728Z,3.47
2022-08-17T15:12:55.089Z,3.03
2022-08-17T15:15:18.501Z,3.60
2022-08-17T15:17:43.778Z,3.15
2022-08-17T15:20:14.556Z,3.08
2022-08-17T15:22:37.765Z,3.33
2022-08-17T15:25:05.531Z,3.33
2022-08-17T15:27:32.224Z,3.15
2022-08-17T15:29:55.534Z,3.20
2022-08-17T15:32:27.745Z,3.20
2022-08-17T15:34:50.058Z,3.38
2022-08-17T15:37:12.669Z,3.45
2022-08-17T15:39:35.052Z,3.15
2022-08-17T15:42:03.496Z,2.58
2022-08-17T15:44:30.224Z,3.22
2022-08-17T15:46:57.246Z,3.20
2022-08-17T15:49:19.725Z,3.20
2022-08-17T15:51:42.457Z,3.53
2022-08-17T15:54:19.057Z,3.55
2022-08-17T15:56:44.912Z,3.38
2022-08-17T15:59:07.255Z,3.30
2022-08-17T16:03:01.837Z,3.10
2022-08-17T16:04:26.653Z,3.38
2022-08-17T16:06:53.412Z,3.15
2022-08-17T16:09:16.251Z,3.00
2022-08-17T16:11:38.550Z,3.30
2022-08-17T16:14:00.801Z,3.40
2022-08-17T16:16:23.681Z,3.55
2022-08-17T16:18:45.979Z,3.13
2022-08-17T16:21:25.844Z,3.00
2022-08-17T16:23:49.243Z,2.92
2022-08-17T16:26:12.161Z,3.22
2022-08-17T16:28:36.202Z,3.03
2022-08-17T16:30:58.785Z,3.30
2022-08-17T16:33:21.329Z,2.85
2022-08-17T16:35:44.153Z,2.90
2022-08-17T16:38:07.270Z,2.97
2022-08-17T16:40:35.905Z,3.25
2022-08-17T16:43:02.060Z,3.42
2022-08-17T16:45:27.132Z,2.95
2022-08-17T16:47:50.310Z,3.35
2022-08-17T16:50:16.825Z,3.10
2022-08-17T16:52:39.573Z,3.28
2022-08-17T16:55:07.003Z,2.58
2022-08-17T16:57:29.977Z,3.28
2022-08-17T16:59:53.584Z,2.80
2022-08-17T17:02:16.796Z,2.92
2022-08-17T17:04:43.626Z,3.47
2022-08-17T17:07:34.441Z,3.33
2022-08-17T17:09:56.883Z,2.85
2022-08-17T17:12:34.906Z,2.97
2022-08-17T17:15:05.121Z,3.45
2022-08-17T17:17:32.768Z,2.97
2022-08-17T17:20:08.390Z,3.55
2022-08-17T17:22:38.932Z,3.17
2022-08-17T17:25:14.526Z,3.20
2022-08-17T17:27:43.061Z,2.97
2022-08-17T17:30:10.319Z,2.90
2022-08-17T17:32:45.083Z,3.05
2022-08-17T17:35:16.341Z,3.00
2022-08-17T17:37:39.612Z,3.10
2022-08-17T17:40:23.187Z,2.90
2022-08-17T17:42:45.888Z,2.72
2022-08-17T17:45:26.049Z,3.00
2022-08-17T17:47:48.840Z,2.60
2022-08-17T17:50:11.545Z,2.50
2022-08-17T17:52:37.397Z,2.78
2022-08-17T17:55:07.520Z,3.10
2022-08-17T17:57:44.851Z,3.10
2022-08-17T18:00:13.999Z,2.90
2022-08-17T18:02:52.613Z,2.88
2022-08-17T18:05:18.423Z,3.03
2022-08-17T18:07:49.943Z,2.95
2022-08-17T18:10:30.188Z,2.80
2022-08-17T18:13:02.568Z,2.88
2022-08-17T18:15:24.832Z,3.10
2022-08-17T18:18:05.999Z,2.80
2022-08-17T18:20:36.462Z,3.30
2022-08-17T18:23:10.635Z,3.53
2022-08-17T18:25:38.996Z,4.15
2022-08-17T18:28:03.767Z,4.25
2022-08-17T18:30:28.900Z,3.88
2022-08-17T18:32:51.464Z,3.58
2022-08-17T18:35:14.297Z,3.72
2022-08-17T18:37:38.489Z,3.70
2022-08-17T18:40:15.261Z,3.28
2022-08-17T18:42:38.748Z,3.63
2022-08-17T18:45:01.007Z,3.47
2022-08-17T18:47:27.754Z,3.55
2022-08-17T18:49:56.205Z,3.50
2022-08-17T18:52:24.789Z,3.20
2022-08-17T18:55:05.958Z,3.00
2022-08-17T18:57:42.596Z,3.25
2022-08-17T19:00:31.469Z,3.42
2022-08-17T19:02:55.650Z,3.78
2022-08-17T19:05:38.192Z,4.00
2022-08-17T19:08:23.550Z,3.85
2022-08-17T19:10:47.323Z,3.78
2022-08-17T19:13:12.518Z,3.67
2022-08-17T19:15:36.128Z,3.78
2022-08-17T19:18:01.261Z,4.05
2022-08-17T19:20:27.561Z,3.88
2022-08-17T19:23:03.768Z,3.90
2022-08-17T19:25:28.240Z,3.95
2022-08-17T19:27:57.989Z,3.72
2022-08-17T19:30:20.997Z,3.72
2022-08-17T19:32:43.418Z,3.78
2022-08-17T19:35:07.546Z,4.18
2022-08-17T19:37:45.031Z,3.92
2022-08-17T19:40:29.206Z,4.57
2022-08-17T19:43:12.374Z,4.07
2022-08-17T19:45:50.160Z,4.15
2022-08-17T19:48:28.282Z,4.38
2022-08-17T19:51:04.631Z,3.70
2022-08-17T19:54:01.733Z,3.53
2022-08-17T19:56:15.709Z,3.92
2022-08-17T19:58:40.790Z,3.78
2022-08-17T20:01:08.063Z,3.58
2022-08-17T20:03:43.577Z,4.30
2022-08-17T20:06:14.801Z,4.50
2022-08-17T20:08:47.600Z,4.40
2022-08-17T20:11:14.500Z,5.03
2022-08-17T20:13:55.785Z,4.85
2022-08-17T20:16:19.283Z,5.28
2022-08-17T20:18:47.882Z,4.50
2022-08-17T20:21:22.465Z,4.35
2022-08-17T20:24:02.574Z,4.80
2022-08-17T20:26:27.089Z,4.50
2022-08-17T20:29:37.832Z,5.03
2022-08-17T20:32:02.830Z,5.07
2022-08-17T20:34:37.162Z,6.03
2022-08-17T20:37:08.935Z,5.55
2022-08-17T20:39:35.966Z,5.15
2022-08-17T20:42:06.360Z,5.07
2022-08-17T20:44:33.306Z,5.35
2022-08-17T20:47:04.294Z,5.88
2022-08-17T20:49:35.904Z,5.05
2022-08-17T20:52:09.775Z,4.85
2022-08-17T20:54:47.578Z,5.10
2022-08-17T20:57:14.316Z,4.70
2022-08-17T20:59:37.019Z,4.55
2022-08-17T21:02:19.050Z,5.25
2022-08-17T21:04:50.467Z,4.78
2022-08-17T21:07:29.160Z,4.90
2022-08-17T21:09:51.745Z,5.30
2022-08-17T21:12:33.933Z,5.35
2022-08-17T21:15:02.252Z,5.45
2022-08-17T21:17:31.890Z,6.07
2022-08-17T21:20:11.507Z,5.43
2022-08-17T21:22:34.260Z,5.65
2022-08-17T21:25:04.644Z,5.60
2022-08-17T21:27:50.135Z,6.22
2022-08-17T21:30:36.058Z,5.97
2022-08-17T21:33:20.249Z,5.43
2022-08-17T21:35:51.171Z,6.20
2022-08-17T21:38:14.418Z,6.95
2022-08-17T21:40:36.689Z,6.15
2022-08-17T21:43:08.335Z,6.30
2022-08-17T21:45:35.056Z,6.13
2022-08-17T21:48:08.638Z,6.25
2022-08-17T21:50:30.851Z,5.85
2022-08-17T21:52:54.060Z,5.28
2022-08-17T21:55:21.798Z,6.07
2022-08-17T21:57:53.217Z,5.65
2022-08-17T22:00:29.088Z,5.60
2022-08-17T22:02:55.922Z,6.07
2022-08-17T22:05:27.608Z,5.72
2022-08-17T22:07:59.918Z,5.57
2022-08-17T22:10:37.664Z,5.88
2022-08-17T22:13:23.199Z,5.45
2022-08-17T22:15:49.842Z,5.55
2022-08-17T22:18:19.934Z,5.82
2022-08-17T22:20:42.172Z,6.32
2022-08-17T22:23:25.016Z,6.13
2022-08-17T22:25:59.968Z,6.75
2022-08-17T22:28:36.716Z,6.97
2022-08-17T22:31:02.336Z,6.32
2022-08-17T22:33:33.725Z,6.03
2022-08-17T22:36:14.727Z,5.55
2022-08-17T22:38:37.276Z,5.53
2022-08-17T22:41:22.080Z,6.15
2022-08-17T22:43:44.887Z,6.03
2022-08-17T22:46:08.289Z,6.05
2022-08-17T22:48:31.234Z,6.25
2022-08-17T22:51:03.722Z,6.47
2022-08-17T22:53:54.727Z,5.70
2022-08-17T22:56:40.693Z,6.07
2022-08-17T22:59:21.096Z,5.65
2022-08-17T23:01:45.352Z,5.93
2022-08-17T23:04:12.180Z,6.38
2022-08-17T23:06:35.189Z,6.32
2022-08-17T23:08:58.001Z,6.43
2022-08-17T23:11:20.296Z,6.53
2022-08-17T23:13:59.408Z,6.38
2022-08-17T23:16:22.497Z,6.70
2022-08-17T23:18:47.928Z,6.20
2022-08-17T23:21:10.165Z,6.18
2022-08-17T23:23:39.243Z,6.00
2022-08-17T23:26:02.249Z,7.28
2022-08-17T23:28:24.540Z,7.25
2022-08-17T23:30:48.246Z,7.32
2022-08-17T23:33:14.945Z,6.72
2022-08-17T23:35:39.616Z,6.40
2022-08-17T23:38:03.218Z,6.90
2022-08-17T23:40:25.617Z,6.72
2022-08-17T23:42:47.844Z,7.15
2022-08-17T23:45:10.342Z,6.65
2022-08-17T23:47:32.597Z,7.68
2022-08-17T23:49:54.963Z,6.85
2022-08-17T23:52:17.341Z,6.70
2022-08-17T23:54:43.695Z,7.38
2022-08-17T23:57:06.060Z,6.95
2022-08-17T23:59:29.142Z,7.32
